Portada
METAR-TAF:

METAR-TAF

Aeroports :

Hartford, Connecticut, Estats Units d'Amèrica

latitud: 41-44-06N, longitud: 072-39-06W, altitud: 5 m

Observació

L'informe es va fer fa 19 minuts, a les 11:53 UTC
Vent 3 kt del Sud
Temperatura 20°C
Humitat 68%
Pressió 1012 hPa
Visibilitat: 16.1 km
Cel clar

METAR: KHFD 241153Z 17003KT 10SM CLR 20/14 A2987 RMK AO2 SLP115 T02000139 10200 20144 53007

Hora: 08:12 (12:12 UTC)


TAF: manca

Observacions i pronòstics meteorològics de més de 4000 aeroports (METAR i TAF).

Les estacions disponibles són els punts grocs i vermells al mapa.

Posi el ratolí al punt desitjat per veure el nom de l'estació.

Feu clic per veure les observacions i els pronòstics meteorològics.

Per canviar el mapa: feu clic els botons verds amb una creu de color negre per apropar; al botó verd amb un guió per allunyar la imatge; o en les fletxes verdes per a mapes adjacents.


METAR-TAF: